Time;durP1;ratioP1;P1;durP2;ratioP2;P2;SDS_P1;SDS_P2;PMS_P1;PMS_P2;Temp;Humidity;BMP_temperature;BMP_pressure;BME280_temperature;BME280_humidity;BME280_pressure;Samples;Min_cycle;Max_cycle;Signal;HPM_P1;HPM_P2
2022/09/12 00:01:40;;;;;;;7.30;5.20;;;;;;;;;;5079198;28;20028;-78
2022/09/12 00:04:05;;;;;;;11.10;5.82;;;;;;;;;;5078115;28;20056;-81
2022/09/12 00:06:35;;;;;;;9.77;5.53;;;;;;;;;;5077790;28;20040;-82
2022/09/12 00:09:05;;;;;;;7.20;5.30;;;;;;;;;;5077421;28;20448;-81
2022/09/12 00:11:30;;;;;;;10.07;4.85;;;;;;;;;;5076559;28;20040;-80
2022/09/12 00:13:58;;;;;;;7.25;5.13;;;;;;;;;;5078229;28;20551;-79
2022/09/12 00:16:26;;;;;;;9.38;5.00;;;;;;;;;;5076213;28;20036;-81
2022/09/12 00:18:52;;;;;;;9.32;5.82;;;;;;;;;;5075704;28;20417;-81
2022/09/12 00:21:18;;;;;;;6.95;5.53;;;;;;;;;;5077196;28;20031;-79
2022/09/12 00:23:44;;;;;;;6.88;5.40;;;;;;;;;;5070918;28;20102;-80
2022/09/12 00:26:10;;;;;;;7.25;5.38;;;;;;;;;;5074579;28;20021;-79
2022/09/12 00:28:38;;;;;;;7.13;4.65;;;;;;;;;;5075021;28;20470;-81
2022/09/12 00:31:26;;;;;;;9.88;5.38;;;;;;;;;;5078860;28;20024;-81
2022/09/12 00:33:54;;;;;;;8.70;5.65;;;;;;;;;;5079185;28;20117;-81
2022/09/12 00:36:21;;;;;;;10.93;5.43;;;;;;;;;;5079153;28;20070;-82
2022/09/12 00:38:48;;;;;;;7.07;4.97;;;;;;;;;;5080840;28;20040;-80
2022/09/12 00:41:26;;;;;;;7.28;5.18;;;;;;;;;;5084025;28;20024;-81
2022/09/12 00:44:04;;;;;;;8.73;5.53;;;;;;;;;;5077211;28;20036;-82
2022/09/12 00:46:47;;;;;;;9.27;5.28;;;;;;;;;;5081243;28;20023;-80
2022/09/12 00:49:24;;;;;;;7.70;5.43;;;;;;;;;;5077171;28;20040;-81
2022/09/12 00:52:07;;;;;;;8.25;5.93;;;;;;;;;;5081226;28;20478;-82
2022/09/12 00:54:48;;;;;;;7.93;5.50;;;;;;;;;;5079758;28;20030;-80
2022/09/12 00:57:15;;;;;;;7.13;4.90;;;;;;;;;;5079771;28;20031;-81
2022/09/12 00:59:47;;;;;;;7.38;5.25;;;;;;;;;;5080527;28;20483;-81
2022/09/12 01:02:12;;;;;;;10.43;5.25;;;;;;;;;;5078982;28;20036;-81
2022/09/12 01:04:39;;;;;;;10.32;5.60;;;;;;;;;;5077229;28;20043;-79
2022/09/12 01:07:06;;;;;;;9.70;5.85;;;;;;;;;;5081420;28;20031;-80
2022/09/12 01:09:32;;;;;;;8.27;5.43;;;;;;;;;;5081042;28;20025;-80
2022/09/12 01:11:58;;;;;;;9.98;5.38;;;;;;;;;;5082218;28;20051;-79
2022/09/12 01:14:23;;;;;;;12.02;5.45;;;;;;;;;;5082201;28;20032;-78
2022/09/12 01:16:50;;;;;;;8.73;6.15;;;;;;;;;;5082992;28;20088;-80
2022/09/12 01:19:45;;;;;;;11.20;5.53;;;;;;;;;;5078838;28;20063;-79
2022/09/12 01:22:22;;;;;;;8.60;5.80;;;;;;;;;;5076453;28;20307;-78
2022/09/12 01:25:06;;;;;;;7.90;5.70;;;;;;;;;;5073654;28;20046;-79
2022/09/12 01:27:50;;;;;;;9.13;5.35;;;;;;;;;;5078595;28;20092;-80
2022/09/12 01:30:31;;;;;;;8.18;5.50;;;;;;;;;;5081229;28;20125;-82
2022/09/12 01:33:13;;;;;;;10.07;5.35;;;;;;;;;;5080912;28;20024;-81
2022/09/12 01:36:05;;;;;;;11.73;5.95;;;;;;;;;;5078130;28;20032;-82
2022/09/12 01:38:40;;;;;;;8.30;5.57;;;;;;;;;;5079637;28;20036;-82
2022/09/12 01:41:21;;;;;;;7.95;5.55;;;;;;;;;;5082976;28;20060;-77
2022/09/12 01:44:22;;;;;;;8.93;5.47;;;;;;;;;;5079664;28;20040;-79
2022/09/12 01:47:15;;;;;;;7.82;5.72;;;;;;;;;;5080398;28;20421;-81
2022/09/12 01:49:48;;;;;;;8.10;5.28;;;;;;;;;;5073633;28;20029;-80
2022/09/12 01:52:38;;;;;;;10.00;6.43;;;;;;;;;;5077782;28;20581;-78
2022/09/12 01:55:45;;;;;;;10.65;5.95;;;;;;;;;;5076531;28;20039;-81
2022/09/12 01:58:19;;;;;;;8.18;5.32;;;;;;;;;;5065730;28;20070;-78
2022/09/12 02:01:08;;;;;;;9.88;6.15;;;;;;;;;;5077621;28;20029;-77
2022/09/12 02:03:43;;;;;;;7.78;4.95;;;;;;;;;;5071601;28;20064;-81
2022/09/12 02:06:18;;;;;;;9.30;5.55;;;;;;;;;;5079383;28;20108;-83
2022/09/12 02:08:49;;;;;;;9.43;5.43;;;;;;;;;;5077386;28;20048;-82
2022/09/12 02:11:15;;;;;;;8.60;6.00;;;;;;;;;;5074267;28;20024;-81
2022/09/12 02:13:50;;;;;;;9.57;5.78;;;;;;;;;;5078572;28;20040;-80
2022/09/12 02:16:22;;;;;;;8.27;5.43;;;;;;;;;;5075647;28;20028;-82
2022/09/12 02:19:06;;;;;;;12.23;6.18;;;;;;;;;;5076705;28;20016;-81
2022/09/12 02:21:34;;;;;;;10.43;5.63;;;;;;;;;;5077633;28;20044;-81
2022/09/12 02:24:02;;;;;;;9.95;5.18;;;;;;;;;;5076798;28;20017;-80
2022/09/12 02:26:35;;;;;;;9.40;6.13;;;;;;;;;;5077668;28;20056;-81
2022/09/12 02:29:02;;;;;;;6.80;5.10;;;;;;;;;;5078380;28;20024;-79
2022/09/12 02:31:34;;;;;;;8.98;5.57;;;;;;;;;;5073590;28;20021;-80
2022/09/12 02:34:38;;;;;;;8.90;5.60;;;;;;;;;;5077928;28;20024;-80
2022/09/12 02:37:34;;;;;;;6.78;5.38;;;;;;;;;;5077733;28;20021;-79
2022/09/12 02:40:00;;;;;;;8.40;5.78;;;;;;;;;;5078563;28;20028;-81
2022/09/12 02:42:25;;;;;;;9.00;5.82;;;;;;;;;;5076050;28;20393;-80
2022/09/12 02:44:54;;;;;;;7.15;5.60;;;;;;;;;;5076215;28;20474;-81
2022/09/12 02:47:28;;;;;;;9.43;5.55;;;;;;;;;;5078391;28;20024;-81
2022/09/12 02:49:55;;;;;;;10.45;5.90;;;;;;;;;;5074953;28;20013;-81
2022/09/12 02:52:21;;;;;;;10.63;5.50;;;;;;;;;;5076536;28;20016;-79
2022/09/12 02:54:47;;;;;;;8.18;5.55;;;;;;;;;;5076498;28;20107;-76
2022/09/12 02:57:17;;;;;;;7.72;5.47;;;;;;;;;;5079553;28;20035;-81
2022/09/12 02:59:43;;;;;;;10.32;5.75;;;;;;;;;;5078432;28;20487;-81
2022/09/12 03:02:33;;;;;;;7.38;5.43;;;;;;;;;;5078462;28;20046;-81
2022/09/12 03:05:05;;;;;;;8.20;5.57;;;;;;;;;;5073949;28;20032;-81
2022/09/12 03:08:00;;;;;;;10.93;5.65;;;;;;;;;;5079444;28;20055;-81
2022/09/12 03:11:09;;;;;;;11.13;5.78;;;;;;;;;;5080276;28;20402;-80
2022/09/12 03:14:19;;;;;;;15.90;5.90;;;;;;;;;;5080967;28;20032;-81
2022/09/12 03:17:09;;;;;;;13.57;6.90;;;;;;;;;;5290351;23;20526;-81
2022/09/12 03:19:56;;;;;;;11.57;6.57;;;;;;;;;;5056954;28;20379;-81
2022/09/12 03:22:35;;;;;;;10.35;6.25;;;;;;;;;;5052187;28;20113;-79
2022/09/12 03:25:31;;;;;;;10.60;6.00;;;;;;;;;;5059904;28;20088;-82
2022/09/12 03:28:10;;;;;;;10.50;5.20;;;;;;;;;;5058844;28;20051;-81
2022/09/12 03:30:40;;;;;;;12.68;6.43;;;;;;;;;;5057524;28;20047;-81
2022/09/12 03:33:10;;;;;;;10.13;5.82;;;;;;;;;;5050744;28;20538;-81
2022/09/12 03:35:36;;;;;;;9.20;6.22;;;;;;;;;;5052511;28;20029;-82
2022/09/12 03:38:01;;;;;;;7.88;5.70;;;;;;;;;;5057446;28;20035;-80
2022/09/12 03:40:27;;;;;;;9.25;5.90;;;;;;;;;;5057180;28;20107;-80
2022/09/12 03:42:52;;;;;;;10.77;6.38;;;;;;;;;;5058851;28;20032;-80
2022/09/12 03:45:18;;;;;;;7.68;5.70;;;;;;;;;;5057383;28;20463;-80
2022/09/12 03:47:43;;;;;;;9.25;6.13;;;;;;;;;;5056777;28;20841;-80
2022/09/12 03:50:08;;;;;;;7.45;5.18;;;;;;;;;;5057408;28;20021;-81
2022/09/12 03:52:34;;;;;;;8.75;5.78;;;;;;;;;;5054277;28;20031;-81
2022/09/12 03:54:59;;;;;;;8.80;5.65;;;;;;;;;;5056650;28;20044;-81
2022/09/12 03:57:25;;;;;;;8.68;5.60;;;;;;;;;;5059615;28;20067;-81
2022/09/12 03:59:50;;;;;;;9.02;5.45;;;;;;;;;;5054153;28;20029;-81
2022/09/12 04:02:16;;;;;;;12.27;5.35;;;;;;;;;;5058342;28;20025;-81
2022/09/12 04:04:42;;;;;;;10.77;5.68;;;;;;;;;;5068459;28;20033;-82
2022/09/12 04:07:11;;;;;;;10.82;5.82;;;;;;;;;;5056664;28;20032;-83
2022/09/12 04:09:36;;;;;;;10.27;5.78;;;;;;;;;;5058523;28;20017;-80
2022/09/12 04:12:02;;;;;;;9.60;6.45;;;;;;;;;;5059308;28;20039;-81
2022/09/12 04:14:27;;;;;;;8.70;5.60;;;;;;;;;;5055265;28;20484;-81
2022/09/12 04:16:52;;;;;;;9.18;6.68;;;;;;;;;;5054413;28;20454;-81
2022/09/12 04:19:18;;;;;;;9.38;5.95;;;;;;;;;;5055493;28;20068;-80
2022/09/12 04:21:43;;;;;;;10.50;7.03;;;;;;;;;;5056806;28;20143;-82
2022/09/12 04:24:08;;;;;;;13.77;6.53;;;;;;;;;;5057053;28;20036;-80
2022/09/12 04:26:34;;;;;;;11.30;5.82;;;;;;;;;;5056369;28;20040;-81
2022/09/12 04:28:59;;;;;;;8.75;6.18;;;;;;;;;;5055045;28;20029;-81
2022/09/12 04:31:25;;;;;;;10.88;6.15;;;;;;;;;;5055753;28;20017;-80
2022/09/12 04:33:55;;;;;;;9.40;5.90;;;;;;;;;;5056055;28;20087;-80
2022/09/12 04:36:21;;;;;;;10.13;6.18;;;;;;;;;;5056325;28;20124;-80
2022/09/12 04:38:49;;;;;;;11.55;6.75;;;;;;;;;;5055513;28;20502;-81
2022/09/12 04:41:23;;;;;;;10.00;6.45;;;;;;;;;;5055572;28;20024;-80
2022/09/12 04:43:54;;;;;;;11.32;7.50;;;;;;;;;;5076878;28;20052;-80
2022/09/12 04:46:19;;;;;;;9.90;6.35;;;;;;;;;;5086040;28;20029;-80
2022/09/12 04:48:46;;;;;;;11.32;6.97;;;;;;;;;;5065522;28;20039;-81
2022/09/12 04:51:19;;;;;;;7.82;6.10;;;;;;;;;;5054305;28;20017;-82
2022/09/12 04:53:48;;;;;;;9.55;6.20;;;;;;;;;;5054834;28;20060;-81
2022/09/12 04:56:14;;;;;;;9.88;6.43;;;;;;;;;;5055190;28;20418;-81
2022/09/12 04:58:39;;;;;;;8.85;5.97;;;;;;;;;;5057762;28;20020;-82
2022/09/12 05:01:07;;;;;;;11.48;6.97;;;;;;;;;;5054378;28;20021;-81
2022/09/12 05:03:33;;;;;;;12.70;6.72;;;;;;;;;;5059219;28;20107;-80
2022/09/12 05:06:02;;;;;;;10.75;7.13;;;;;;;;;;5058588;28;20102;-81
2022/09/12 05:08:27;;;;;;;10.90;6.80;;;;;;;;;;5054383;28;20105;-80
2022/09/12 05:10:53;;;;;;;7.63;6.22;;;;;;;;;;5051568;28;20012;-80
2022/09/12 05:13:18;;;;;;;9.98;6.70;;;;;;;;;;5054445;28;20498;-81
2022/09/12 05:15:53;;;;;;;9.95;6.60;;;;;;;;;;5054043;28;20700;-81
2022/09/12 05:18:18;;;;;;;13.40;6.10;;;;;;;;;;5056447;28;20033;-80
2022/09/12 05:20:43;;;;;;;11.45;6.28;;;;;;;;;;5051736;28;20275;-80
2022/09/12 05:23:09;;;;;;;11.13;7.28;;;;;;;;;;5052371;28;20041;-79
2022/09/12 05:25:34;;;;;;;8.60;5.70;;;;;;;;;;5053763;28;20027;-80
2022/09/12 05:28:00;;;;;;;11.13;6.68;;;;;;;;;;5042427;28;20082;-80
2022/09/12 05:30:25;;;;;;;9.88;6.03;;;;;;;;;;5050827;28;20039;-83
2022/09/12 05:32:50;;;;;;;9.45;6.03;;;;;;;;;;5055222;28;20025;-80
2022/09/12 05:35:16;;;;;;;8.70;5.57;;;;;;;;;;5054888;28;20029;-81
2022/09/12 05:37:42;;;;;;;9.48;6.88;;;;;;;;;;5055352;28;20021;-81
2022/09/12 05:40:08;;;;;;;14.63;7.15;;;;;;;;;;5052253;28;20117;-81
2022/09/12 05:42:33;;;;;;;10.57;6.80;;;;;;;;;;5054470;28;20025;-80
2022/09/12 05:44:58;;;;;;;10.38;7.18;;;;;;;;;;5056697;28;20039;-79
2022/09/12 05:47:24;;;;;;;9.30;6.97;;;;;;;;;;5051295;28;20029;-80
2022/09/12 05:49:50;;;;;;;10.05;7.53;;;;;;;;;;5053104;28;20021;-80
2022/09/12 05:52:15;;;;;;;11.10;7.03;;;;;;;;;;5043358;28;20120;-80
2022/09/12 05:54:41;;;;;;;11.05;7.13;;;;;;;;;;5046682;28;20060;-80
2022/09/12 05:57:06;;;;;;;13.20;7.35;;;;;;;;;;5054014;28;20484;-80
2022/09/12 05:59:32;;;;;;;11.18;7.45;;;;;;;;;;5054343;28;20025;-81
2022/09/12 06:01:57;;;;;;;14.45;8.55;;;;;;;;;;5054146;28;20032;-83
2022/09/12 06:04:23;;;;;;;15.82;8.27;;;;;;;;;;5053195;28;20083;-80
2022/09/12 06:06:49;;;;;;;13.57;9.35;;;;;;;;;;5051976;28;20029;-81
2022/09/12 06:09:15;;;;;;;13.25;9.23;;;;;;;;;;5053555;28;20121;-81
2022/09/12 06:11:41;;;;;;;14.50;8.95;;;;;;;;;;5054139;28;20029;-85
2022/09/12 06:14:09;;;;;;;14.90;9.07;;;;;;;;;;5054508;28;20024;-84
2022/09/12 06:16:36;;;;;;;17.15;9.10;;;;;;;;;;5055387;28;20040;-84
2022/09/12 06:19:05;;;;;;;12.90;8.55;;;;;;;;;;5055623;28;20029;-84
2022/09/12 06:21:30;;;;;;;17.52;8.88;;;;;;;;;;5070581;28;20032;-82
2022/09/12 06:24:00;;;;;;;11.90;7.72;;;;;;;;;;5075529;28;20043;-82
2022/09/12 06:26:26;;;;;;;11.93;7.78;;;;;;;;;;5075612;28;20009;-78
2022/09/12 06:28:53;;;;;;;12.40;7.40;;;;;;;;;;5072544;28;20013;-79
2022/09/12 06:31:21;;;;;;;20.20;8.07;;;;;;;;;;5073571;28;20029;-80
2022/09/12 06:33:50;;;;;;;11.35;6.80;;;;;;;;;;5072037;28;20025;-81
2022/09/12 06:36:20;;;;;;;10.52;6.88;;;;;;;;;;5066370;28;20021;-81
2022/09/12 06:38:46;;;;;;;9.38;6.53;;;;;;;;;;5071274;28;20013;-80
2022/09/12 06:41:12;;;;;;;9.30;6.53;;;;;;;;;;5072511;28;20025;-80
2022/09/12 06:43:39;;;;;;;9.05;6.00;;;;;;;;;;5092150;28;20024;-79
2022/09/12 06:46:05;;;;;;;12.90;6.60;;;;;;;;;;5080595;28;20028;-80
2022/09/12 06:48:30;;;;;;;9.77;6.13;;;;;;;;;;5064580;28;20021;-82
2022/09/12 06:50:58;;;;;;;8.02;6.07;;;;;;;;;;5062966;28;20020;-83
2022/09/12 06:53:24;;;;;;;9.40;5.80;;;;;;;;;;5061690;28;20056;-83
2022/09/12 06:55:56;;;;;;;12.23;6.40;;;;;;;;;;5060584;28;20025;-82
2022/09/12 06:58:21;;;;;;;7.03;6.03;;;;;;;;;;5061814;28;20445;-82
2022/09/12 07:00:46;;;;;;;12.35;5.95;;;;;;;;;;5055649;28;20037;-82
2022/09/12 07:03:11;;;;;;;7.18;5.75;;;;;;;;;;5050116;28;20059;-83
2022/09/12 07:05:37;;;;;;;9.23;5.82;;;;;;;;;;5061284;28;20028;-82
2022/09/12 07:08:02;;;;;;;8.70;5.32;;;;;;;;;;5062058;28;20025;-80
2022/09/12 07:10:28;;;;;;;8.07;5.75;;;;;;;;;;5061977;28;20020;-82
2022/09/12 07:12:53;;;;;;;8.90;6.05;;;;;;;;;;5062776;28;20037;-82
2022/09/12 07:15:18;;;;;;;9.40;5.75;;;;;;;;;;5060556;28;20048;-83
2022/09/12 07:17:44;;;;;;;9.00;5.68;;;;;;;;;;5058092;28;20306;-82
2022/09/12 07:20:09;;;;;;;6.78;5.57;;;;;;;;;;5064353;28;20028;-81
2022/09/12 07:22:34;;;;;;;7.30;5.30;;;;;;;;;;5051908;28;20040;-83
2022/09/12 07:25:00;;;;;;;7.97;5.13;;;;;;;;;;5073525;28;20017;-81
2022/09/12 07:27:25;;;;;;;8.02;5.90;;;;;;;;;;5077453;28;20021;-81
2022/09/12 07:29:50;;;;;;;9.63;5.40;;;;;;;;;;5063123;28;20053;-82
2022/09/12 07:32:16;;;;;;;8.50;5.80;;;;;;;;;;5059539;28;20071;-82
2022/09/12 07:34:41;;;;;;;8.73;5.57;;;;;;;;;;5063262;28;20399;-82
2022/09/12 07:37:07;;;;;;;8.10;5.40;;;;;;;;;;5060364;28;20078;-81
2022/09/12 07:39:32;;;;;;;7.28;5.50;;;;;;;;;;5055775;28;20021;-81
2022/09/12 07:41:59;;;;;;;10.02;5.60;;;;;;;;;;5054300;28;20499;-82
2022/09/12 07:44:25;;;;;;;7.32;5.32;;;;;;;;;;5052601;28;20041;-81
2022/09/12 07:46:51;;;;;;;8.90;4.50;;;;;;;;;;5053111;28;20029;-80
2022/09/12 07:49:16;;;;;;;6.43;4.78;;;;;;;;;;5056082;28;20025;-81
2022/09/12 07:51:42;;;;;;;6.53;5.13;;;;;;;;;;5047227;28;20017;-82
2022/09/12 07:54:08;;;;;;;9.02;4.80;;;;;;;;;;5051876;28;20434;-82
2022/09/12 07:56:33;;;;;;;5.68;4.60;;;;;;;;;;5055909;28;20025;-81
2022/09/12 07:58:59;;;;;;;9.25;5.70;;;;;;;;;;5054029;28;20392;-80
2022/09/12 08:01:25;;;;;;;9.43;5.43;;;;;;;;;;5057711;28;20025;-83
2022/09/12 08:03:56;;;;;;;5.70;4.57;;;;;;;;;;5061816;28;20051;-81
2022/09/12 08:06:23;;;;;;;9.60;5.30;;;;;;;;;;5059877;28;20021;-82
2022/09/12 08:08:48;;;;;;;7.10;5.18;;;;;;;;;;5062253;28;20033;-81
2022/09/12 08:11:17;;;;;;;8.85;5.28;;;;;;;;;;5061781;28;20024;-82
2022/09/12 08:13:43;;;;;;;9.32;5.22;;;;;;;;;;5065009;28;20025;-79
2022/09/12 08:16:14;;;;;;;6.75;4.88;;;;;;;;;;5061978;28;20017;-80
2022/09/12 08:18:41;;;;;;;7.90;4.63;;;;;;;;;;5060948;28;20025;-78
2022/09/12 08:21:22;;;;;;;8.65;4.95;;;;;;;;;;5061658;28;20053;-78
2022/09/12 08:23:56;;;;;;;7.45;4.65;;;;;;;;;;5066015;28;20033;-79
2022/09/12 08:26:22;;;;;;;7.25;4.65;;;;;;;;;;5059123;28;20055;-78
2022/09/12 08:28:47;;;;;;;7.30;4.78;;;;;;;;;;5067886;28;20032;-79
2022/09/12 08:31:15;;;;;;;9.05;4.80;;;;;;;;;;5072125;28;20019;-79
2022/09/12 08:33:41;;;;;;;4.75;3.95;;;;;;;;;;5066982;28;20744;-79
2022/09/12 08:36:07;;;;;;;9.52;4.00;;;;;;;;;;5057467;28;20020;-79
2022/09/12 08:38:35;;;;;;;4.95;4.20;;;;;;;;;;5055150;28;20040;-81
2022/09/12 08:41:08;;;;;;;7.47;4.03;;;;;;;;;;5051851;28;20037;-78
2022/09/12 08:43:52;;;;;;;4.53;3.83;;;;;;;;;;5051533;28;20205;-83
2022/09/12 08:46:26;;;;;;;8.18;3.85;;;;;;;;;;5051278;28;20017;-80
2022/09/12 08:48:52;;;;;;;7.80;3.40;;;;;;;;;;5057953;28;20055;-81
2022/09/12 08:51:19;;;;;;;5.93;4.03;;;;;;;;;;5060945;28;20071;-82
2022/09/12 08:53:48;;;;;;;5.25;3.53;;;;;;;;;;5060880;28;20036;-81
2022/09/12 08:56:14;;;;;;;6.57;3.78;;;;;;;;;;5059702;28;20425;-84
2022/09/12 08:58:42;;;;;;;5.30;3.50;;;;;;;;;;5060187;28;20073;-83
2022/09/12 09:01:22;;;;;;;5.00;3.60;;;;;;;;;;5050478;28;20033;-83
2022/09/12 09:04:03;;;;;;;3.88;2.85;;;;;;;;;;5060201;28;20074;-81
2022/09/12 09:06:35;;;;;;;5.30;3.38;;;;;;;;;;5059641;28;20040;-80
2022/09/12 09:09:35;;;;;;;4.28;3.30;;;;;;;;;;5060375;28;20029;-80
2022/09/12 09:12:15;;;;;;;3.13;2.55;;;;;;;;;;5049034;28;20071;-82
2022/09/12 09:15:13;;;;;;;4.22;2.80;;;;;;;;;;5056781;28;20025;-83
2022/09/12 09:17:45;;;;;;;2.50;2.30;;;;;;;;;;5201523;22;20144;-79
2022/09/12 09:20:37;;;;;;;3.10;2.30;;;;;;;;;;5025176;28;20044;-81
2022/09/12 09:23:06;;;;;;;;;;;;;;;;;;5022016;28;20034;-83
2022/09/12 09:25:50;;;;;;;4.95;2.40;;;;;;;;;;5018613;28;19940;-79
2022/09/12 09:28:22;;;;;;;3.15;2.15;;;;;;;;;;5011944;28;20041;-81
2022/09/12 09:30:47;;;;;;;3.83;2.20;;;;;;;;;;5008916;28;20072;-83
2022/09/12 09:33:26;;;;;;;3.13;1.95;;;;;;;;;;5007269;28;20077;-82
2022/09/12 09:36:13;;;;;;;2.28;1.70;;;;;;;;;;5009068;28;20108;-82
2022/09/12 09:47:04;;;;;;;1.67;1.58;;;;;;;;;;5294052;22;20045;-81
2022/09/12 09:49:32;;;;;;;4.35;1.60;;;;;;;;;;5091236;28;20051;-81
2022/09/12 09:51:59;;;;;;;1.63;1.30;;;;;;;;;;5092696;28;20535;-80
2022/09/12 09:54:28;;;;;;;4.00;1.88;;;;;;;;;;5083373;28;20703;-82
2022/09/12 09:56:53;;;;;;;2.10;1.75;;;;;;;;;;5088768;28;20299;-82
2022/09/12 09:59:18;;;;;;;1.92;1.50;;;;;;;;;;5085749;28;20047;-83
2022/09/12 10:02:20;;;;;;;2.05;1.85;;;;;;;;;;5097386;28;20468;-81
2022/09/12 10:05:02;;;;;;;;;;;;;;;;;;5097398;28;20077;-81
2022/09/12 10:07:27;;;;;;;2.28;1.67;;;;;;;;;;5075309;28;19912;-81
2022/09/12 10:10:13;;;;;;;1.70;1.40;;;;;;;;;;5086130;28;20162;-80
2022/09/12 10:12:38;;;;;;;2.08;1.65;;;;;;;;;;5080172;28;20024;-81
2022/09/12 10:15:19;;;;;;;2.35;1.98;;;;;;;;;;5073944;28;20038;-81
2022/09/12 10:17:48;;;;;;;1.60;1.50;;;;;;;;;;5076308;28;20028;-83
2022/09/12 10:20:40;;;;;;;2.63;1.60;;;;;;;;;;5077165;28;20052;-82
2022/09/12 10:23:18;;;;;;;3.38;1.70;;;;;;;;;;5080584;28;20067;-83
2022/09/12 10:25:48;;;;;;;1.73;1.63;;;;;;;;;;5082693;28;20032;-83
2022/09/12 10:28:39;;;;;;;2.67;1.70;;;;;;;;;;5098050;28;20135;-83
2022/09/12 10:31:07;;;;;;;1.80;1.60;;;;;;;;;;5079647;28;20071;-81
2022/09/12 10:33:52;;;;;;;1.55;1.45;;;;;;;;;;5075445;28;20554;-83
2022/09/12 10:36:18;;;;;;;1.80;1.70;;;;;;;;;;5075792;28;20024;-83
2022/09/12 10:38:56;;;;;;;1.52;1.42;;;;;;;;;;5075124;28;20027;-83
2022/09/12 10:41:22;;;;;;;1.75;1.42;;;;;;;;;;5084398;28;20032;-82
2022/09/12 10:43:47;;;;;;;1.88;1.70;;;;;;;;;;5086122;28;20024;-81
2022/09/12 10:46:21;;;;;;;1.65;1.55;;;;;;;;;;5098569;28;20039;-82
2022/09/12 10:48:51;;;;;;;3.45;1.27;;;;;;;;;;5089336;28;20024;-81
2022/09/12 10:51:22;;;;;;;2.60;1.50;;;;;;;;;;5082228;28;20020;-82
2022/09/12 10:53:49;;;;;;;2.75;1.52;;;;;;;;;;5093404;28;20078;-82
2022/09/12 10:56:46;;;;;;;1.52;1.40;;;;;;;;;;5093516;28;20099;-81
2022/09/12 10:59:20;;;;;;;5.28;2.13;;;;;;;;;;5079039;28;20056;-82
2022/09/12 11:01:59;;;;;;;2.35;1.80;;;;;;;;;;5098035;28;20028;-82
2022/09/12 11:04:45;;;;;;;2.00;1.85;;;;;;;;;;5097569;28;20034;-83
2022/09/12 11:07:40;;;;;;;3.65;1.60;;;;;;;;;;5093559;28;20508;-82
2022/09/12 11:10:32;;;;;;;1.55;1.45;;;;;;;;;;5014200;28;20800;-82
2022/09/12 11:13:35;;;;;;;1.63;1.38;;;;;;;;;;5070144;28;20048;-82
2022/09/12 11:16:14;;;;;;;3.17;1.42;;;;;;;;;;5076843;28;21387;-82
2022/09/12 11:18:43;;;;;;;5.13;1.63;;;;;;;;;;5077763;28;20447;-82
2022/09/12 11:21:38;;;;;;;2.05;1.67;;;;;;;;;;5089709;28;20080;-82
2022/09/12 11:24:22;;;;;;;2.88;1.67;;;;;;;;;;5088002;28;20066;-80
2022/09/12 11:26:59;;;;;;;1.55;1.30;;;;;;;;;;5094666;28;20028;-81
2022/09/12 11:29:46;;;;;;;4.03;1.50;;;;;;;;;;5086716;28;20115;-81
2022/09/12 11:32:40;;;;;;;3.10;1.35;;;;;;;;;;5100286;28;20028;-81
2022/09/12 11:35:19;;;;;;;1.08;0.98;;;;;;;;;;5099415;28;20024;-81
2022/09/12 11:38:07;;;;;;;2.25;1.58;;;;;;;;;;5085825;28;20039;-82
2022/09/12 11:41:04;;;;;;;1.05;1.05;;;;;;;;;;5089011;28;20027;-80
2022/09/12 11:43:39;;;;;;;0.90;0.90;;;;;;;;;;5083013;28;20051;-81
2022/09/12 11:46:38;;;;;;;1.20;1.10;;;;;;;;;;5083974;28;20481;-80
2022/09/12 11:49:14;;;;;;;1.85;1.00;;;;;;;;;;5083654;28;20043;-83
2022/09/12 11:51:46;;;;;;;1.30;1.20;;;;;;;;;;5085637;28;20028;-82
2022/09/12 11:54:33;;;;;;;1.40;1.20;;;;;;;;;;5102411;28;20905;-82
2022/09/12 11:57:28;;;;;;;1.58;1.10;;;;;;;;;;5081450;28;20028;-82
2022/09/12 12:00:16;;;;;;;1.40;1.30;;;;;;;;;;5075880;28;20378;-85
2022/09/12 12:03:03;;;;;;;3.28;1.30;;;;;;;;;;5083758;28;20039;-79
2022/09/12 12:05:54;;;;;;;0.90;0.90;;;;;;;;;;5084516;28;20123;-83
2022/09/12 12:08:22;;;;;;;4.35;1.30;;;;;;;;;;5080110;28;20063;-82
2022/09/12 12:10:55;;;;;;;0.95;0.95;;;;;;;;;;5073436;28;20109;-82
2022/09/12 12:13:31;;;;;;;1.70;1.00;;;;;;;;;;5067868;28;20021;-83
2022/09/12 12:16:06;;;;;;;1.65;1.20;;;;;;;;;;5068144;28;20038;-82
2022/09/12 12:18:35;;;;;;;1.27;1.10;;;;;;;;;;5071909;28;20036;-81
2022/09/12 12:21:31;;;;;;;2.20;0.90;;;;;;;;;;5072500;28;20047;-82
2022/09/12 12:24:08;;;;;;;1.33;1.00;;;;;;;;;;5070551;28;20085;-83
2022/09/12 12:26:40;;;;;;;0.85;0.85;;;;;;;;;;5071624;28;20032;-81
2022/09/12 12:29:32;;;;;;;2.22;1.20;;;;;;;;;;5069416;28;20043;-82
2022/09/12 12:31:58;;;;;;;0.90;0.90;;;;;;;;;;5083131;28;20038;-82
2022/09/12 12:34:40;;;;;;;1.10;0.90;;;;;;;;;;5075090;28;20114;-78
2022/09/12 12:37:17;;;;;;;0.80;0.80;;;;;;;;;;5074804;28;20066;-80
2022/09/12 12:39:43;;;;;;;0.75;0.75;;;;;;;;;;5076765;28;20028;-80
2022/09/12 12:42:09;;;;;;;1.58;1.20;;;;;;;;;;5081193;28;20035;-81
2022/09/12 12:44:43;;;;;;;1.10;1.00;;;;;;;;;;5082877;28;21012;-81
2022/09/12 12:47:24;;;;;;;1.42;1.00;;;;;;;;;;5077242;28;20032;-81
2022/09/12 12:49:54;;;;;;;1.13;1.08;;;;;;;;;;5080905;28;20028;-81
2022/09/12 12:52:20;;;;;;;1.95;0.90;;;;;;;;;;5082246;28;20061;-81
2022/09/12 12:54:45;;;;;;;0.77;0.73;;;;;;;;;;5074790;28;20032;-83
2022/09/12 12:57:18;;;;;;;2.20;0.90;;;;;;;;;;5073612;28;20118;-84
2022/09/12 12:59:51;;;;;;;0.85;0.75;;;;;;;;;;5091145;28;20028;-82
2022/09/12 13:02:22;;;;;;;0.82;0.82;;;;;;;;;;5098099;28;20389;-82
2022/09/12 13:04:49;;;;;;;1.35;1.05;;;;;;;;;;5100889;28;20016;-82
2022/09/12 13:07:25;;;;;;;1.17;1.00;;;;;;;;;;5097693;28;20031;-82
2022/09/12 13:09:54;;;;;;;4.28;1.02;;;;;;;;;;5096108;28;20027;-82
2022/09/12 13:12:23;;;;;;;1.58;1.10;;;;;;;;;;5086014;28;20249;-82
2022/09/12 13:14:58;;;;;;;1.50;1.00;;;;;;;;;;5096984;28;20032;-82
2022/09/12 13:17:24;;;;;;;1.50;1.02;;;;;;;;;;5084132;28;20059;-82
2022/09/12 13:19:53;;;;;;;0.82;0.82;;;;;;;;;;5094999;28;20016;-81
2022/09/12 13:22:23;;;;;;;1.33;0.98;;;;;;;;;;5097204;28;20445;-82
2022/09/12 13:24:51;;;;;;;1.00;0.90;;;;;;;;;;5093537;28;20044;-80
2022/09/12 13:27:18;;;;;;;1.42;1.10;;;;;;;;;;5085328;28;20042;-83
2022/09/12 13:29:43;;;;;;;1.10;1.00;;;;;;;;;;5096546;28;20417;-83
2022/09/12 13:32:09;;;;;;;4.28;1.05;;;;;;;;;;5100580;28;20039;-83
2022/09/12 13:34:48;;;;;;;1.13;0.80;;;;;;;;;;5100454;28;20035;-82
2022/09/12 13:37:38;;;;;;;1.05;1.05;;;;;;;;;;5100432;28;20552;-82
2022/09/12 13:40:22;;;;;;;0.98;0.80;;;;;;;;;;5083910;28;20024;-82
2022/09/12 13:42:52;;;;;;;2.42;0.88;;;;;;;;;;5083696;28;20046;-83
2022/09/12 13:45:22;;;;;;;0.80;0.80;;;;;;;;;;5077635;28;20102;-82
2022/09/12 13:47:53;;;;;;;2.40;1.10;;;;;;;;;;5079365;28;20035;-82
2022/09/12 13:50:23;;;;;;;1.02;0.90;;;;;;;;;;5082287;28;20035;-82
2022/09/12 13:52:56;;;;;;;0.90;0.90;;;;;;;;;;5082102;28;20727;-82
2022/09/12 13:55:30;;;;;;;0.90;0.90;;;;;;;;;;5087224;28;20032;-81
2022/09/12 13:57:58;;;;;;;1.10;1.00;;;;;;;;;;5080800;28;21333;-85
2022/09/12 14:00:24;;;;;;;1.50;0.80;;;;;;;;;;5080350;28;20113;-81
2022/09/12 14:05:06;;;;;;;1.05;0.93;;;;;;;;;;5078156;28;20486;-81
2022/09/12 14:05:38;;;;;;;1.27;0.80;;;;;;;;;;5078266;28;20028;-80
2022/09/12 14:08:07;;;;;;;0.80;0.80;;;;;;;;;;5080281;28;20027;-81
2022/09/12 14:10:46;;;;;;;1.25;0.80;;;;;;;;;;5076701;28;20024;-81
2022/09/12 14:13:17;;;;;;;0.70;0.70;;;;;;;;;;5072748;28;20119;-81
2022/09/12 14:15:51;;;;;;;0.90;0.90;;;;;;;;;;5087331;28;20039;-81
2022/09/12 14:18:30;;;;;;;5.82;0.90;;;;;;;;;;5076916;28;20557;-81
2022/09/12 14:20:59;;;;;;;2.40;0.95;;;;;;;;;;5087153;28;20039;-82
2022/09/12 14:23:26;;;;;;;1.75;0.73;;;;;;;;;;5083447;28;20440;-79
2022/09/12 14:25:53;;;;;;;3.05;0.90;;;;;;;;;;5084767;28;20028;-82
2022/09/12 14:28:19;;;;;;;2.20;0.88;;;;;;;;;;5085884;28;20104;-82
2022/09/12 14:31:17;;;;;;;1.40;1.00;;;;;;;;;;5077372;28;20470;-81
2022/09/12 14:33:48;;;;;;;1.10;0.80;;;;;;;;;;5087205;28;20037;-83
2022/09/12 14:36:30;;;;;;;1.23;0.68;;;;;;;;;;5092343;28;20058;-83
2022/09/12 14:39:01;;;;;;;1.10;1.00;;;;;;;;;;5076852;28;20032;-82
2022/09/12 14:41:38;;;;;;;1.40;0.93;;;;;;;;;;5079993;28;20153;-87
2022/09/12 14:44:09;;;;;;;0.82;0.82;;;;;;;;;;5087017;28;20821;-80
2022/09/12 14:46:40;;;;;;;1.77;0.90;;;;;;;;;;5089893;28;20032;-82
2022/09/12 14:49:17;;;;;;;0.80;0.80;;;;;;;;;;5088056;28;20069;-81
2022/09/12 14:51:52;;;;;;;1.02;1.02;;;;;;;;;;5086755;28;20034;-79
2022/09/12 14:54:27;;;;;;;2.60;0.95;;;;;;;;;;5077668;28;20040;-80
2022/09/12 14:57:31;;;;;;;1.02;0.77;;;;;;;;;;5078969;28;20024;-79
2022/09/12 15:00:12;;;;;;;0.90;0.90;;;;;;;;;;5084508;28;20493;-80
2022/09/12 15:02:40;;;;;;;0.77;0.77;;;;;;;;;;5099091;28;20137;-80
2022/09/12 15:05:05;;;;;;;0.80;0.80;;;;;;;;;;5101043;28;20229;-81
2022/09/12 15:07:37;;;;;;;0.82;0.75;;;;;;;;;;5103642;28;20034;-80
2022/09/12 15:10:15;;;;;;;1.23;1.13;;;;;;;;;;5090457;28;20016;-79
2022/09/12 15:12:40;;;;;;;0.68;0.68;;;;;;;;;;5083681;28;20040;-81
2022/09/12 15:15:19;;;;;;;0.85;0.85;;;;;;;;;;5084916;28;20043;-81
2022/09/12 15:17:45;;;;;;;0.85;0.70;;;;;;;;;;5080013;28;20509;-81
2022/09/12 15:20:12;;;;;;;0.70;0.70;;;;;;;;;;5085267;28;20117;-80
2022/09/12 15:22:38;;;;;;;1.67;0.95;;;;;;;;;;5095052;28;20032;-81